Time;durP1;ratioP1;P1;durP2;ratioP2;P2;SDS_P1;SDS_P2;PMS_P1;PMS_P2;Temp;Humidity;BMP_temperature;BMP_pressure;BME280_temperature;BME280_humidity;BME280_pressure;Samples;Min_cycle;Max_cycle;Signal;HPM_P1;HPM_P2
2022/03/27 00:02:05;;;;;;;;;;;5.40;99.90;;;;;;4943957;28;20049;-59
2022/03/27 00:04:32;;;;;;;54.47;29.75;;;5.30;99.90;;;;;;4942311;28;20381;-59
2022/03/27 00:06:59;;;;;;;;;;;5.30;99.90;;;;;;4945520;28;20182;-59
2022/03/27 00:09:26;;;;;;;61.17;34.28;;;5.30;99.90;;;;;;4945022;28;19956;-59
2022/03/27 00:11:53;;;;;;;56.28;30.90;;;5.30;99.90;;;;;;4943470;28;20153;-59
2022/03/27 00:14:20;;;;;;;;;;;5.20;99.90;;;;;;4944404;28;20556;-59
2022/03/27 00:16:47;;;;;;;54.85;31.95;;;5.20;99.90;;;;;;4943609;28;20673;-59
2022/03/27 00:19:14;;;;;;;59.60;32.97;;;5.10;99.90;;;;;;4941979;28;20165;-59
2022/03/27 00:21:42;;;;;;;;;;;5.10;99.90;;;;;;4944372;28;20149;-59
2022/03/27 00:24:09;;;;;;;64.82;33.92;;;5.10;99.90;;;;;;4945426;28;20349;-59
2022/03/27 00:26:36;;;;;;;67.18;33.50;;;5.10;99.90;;;;;;4944686;28;20544;-59
2022/03/27 00:29:04;;;;;;;62.40;33.70;;;5.10;99.90;;;;;;4943379;28;20145;-59
2022/03/27 00:31:35;;;;;;;62.53;35.15;;;5.00;99.90;;;;;;4943104;28;20120;-59
2022/03/27 00:34:04;;;;;;;60.17;35.20;;;4.90;99.90;;;;;;4943818;28;20042;-59
2022/03/27 00:36:31;;;;;;;68.68;35.45;;;4.80;99.90;;;;;;4945662;28;20046;-59
2022/03/27 00:38:58;;;;;;;58.72;33.17;;;4.70;99.90;;;;;;4944435;28;20423;-59
2022/03/27 00:41:25;;;;;;;58.88;32.78;;;4.70;99.90;;;;;;4943997;28;20053;-59
2022/03/27 00:43:52;;;;;;;65.45;33.92;;;4.60;99.90;;;;;;4943041;28;20571;-59
2022/03/27 00:46:19;;;;;;;;;;;4.60;99.90;;;;;;4945357;28;20050;-59
2022/03/27 00:48:46;;;;;;;59.95;32.65;;;4.50;99.90;;;;;;4943999;28;19929;-59
2022/03/27 00:51:13;;;;;;;69.22;35.45;;;4.50;99.90;;;;;;4944725;28;20113;-59
2022/03/27 00:53:40;;;;;;;65.07;36.40;;;4.50;99.90;;;;;;4944263;28;20615;-59
2022/03/27 00:56:07;;;;;;;;;;;4.50;99.90;;;;;;4942501;28;20035;-59
2022/03/27 00:58:34;;;;;;;66.88;33.63;;;4.50;99.90;;;;;;4944433;28;20497;-59
2022/03/27 01:01:09;;;;;;;;;;;4.50;99.90;;;;;;4945424;28;20049;-59
2022/03/27 01:03:37;;;;;;;64.50;34.47;;;4.50;99.90;;;;;;4942585;28;19922;-59
2022/03/27 01:06:08;;;;;;;61.70;33.45;;;4.50;99.90;;;;;;4944204;28;20429;-58
2022/03/27 01:11:21;;;;;;;63.17;34.58;;;4.50;99.90;;;;;;4943588;28;20042;-59
2022/03/27 01:13:54;;;;;;;60.53;34.35;;;4.50;99.90;;;;;;4943696;28;20590;-60
2022/03/27 01:16:44;;;;;;;62.38;32.85;;;4.50;99.90;;;;;;4943185;28;20053;-60
2022/03/27 01:19:14;;;;;;;60.97;32.42;;;4.50;99.90;;;;;;4943986;28;20035;-59
2022/03/27 01:21:43;;;;;;;60.20;32.08;;;4.50;99.90;;;;;;4943237;28;20823;-59
2022/03/27 01:24:11;;;;;;;60.25;33.53;;;4.50;99.90;;;;;;4943320;28;20050;-59
2022/03/27 01:26:39;;;;;;;54.63;32.60;;;4.50;99.90;;;;;;4944497;28;20042;-59
2022/03/27 01:29:07;;;;;;;56.35;31.35;;;4.50;99.90;;;;;;4944030;28;20042;-60
2022/03/27 01:31:35;;;;;;;64.95;34.20;;;4.50;99.90;;;;;;4944635;28;20121;-59
2022/03/27 01:34:04;;;;;;;65.63;34.05;;;4.40;99.90;;;;;;4943031;28;20050;-59
2022/03/27 01:36:36;;;;;;;58.83;32.80;;;4.40;99.90;;;;;;4943435;28;20103;-59
2022/03/27 01:39:09;;;;;;;54.10;31.10;;;4.40;99.90;;;;;;4943962;28;20034;-59
2022/03/27 01:41:36;;;;;;;51.17;29.65;;;4.30;99.90;;;;;;4943947;28;20045;-59
2022/03/27 01:44:05;;;;;;;54.28;30.80;;;4.30;99.90;;;;;;4925503;28;20084;-59
2022/03/27 01:46:34;;;;;;;56.53;30.17;;;4.30;99.90;;;;;;4925742;28;20051;-59
2022/03/27 01:49:02;;;;;;;52.33;29.67;;;4.30;99.90;;;;;;4942351;28;20046;-59
2022/03/27 01:51:30;;;;;;;59.20;30.88;;;4.20;99.90;;;;;;4941329;28;20052;-59
2022/03/27 01:53:56;;;;;;;56.25;32.05;;;4.20;99.90;;;;;;4943444;28;20736;-59
2022/03/27 01:56:24;;;;;;;57.88;32.55;;;4.10;99.90;;;;;;4944359;28;20843;-59
2022/03/27 01:58:51;;;;;;;57.22;30.80;;;4.10;99.90;;;;;;4942905;28;20046;-59
2022/03/27 02:01:22;;;;;;;54.00;32.17;;;4.10;99.90;;;;;;4944670;28;20043;-60
2022/03/27 02:03:49;;;;;;;63.65;33.72;;;4.00;99.90;;;;;;4940131;28;20054;-59
2022/03/27 02:06:16;;;;;;;62.55;33.92;;;4.00;99.90;;;;;;4944199;28;20552;-59
2022/03/27 02:08:44;;;;;;;66.28;36.60;;;3.90;99.90;;;;;;4943023;28;20213;-59
2022/03/27 02:11:14;;;;;;;66.50;35.25;;;3.90;99.90;;;;;;4946461;28;20894;-58
2022/03/27 02:13:41;;;;;;;65.32;35.75;;;3.90;99.90;;;;;;4947040;28;20057;-59
2022/03/27 02:16:08;;;;;;;75.47;38.97;;;3.90;99.90;;;;;;4945988;28;20503;-58
2022/03/27 02:18:36;;;;;;;66.93;34.85;;;3.80;99.90;;;;;;4946528;28;20457;-59
2022/03/27 02:21:03;;;;;;;71.03;38.53;;;3.80;99.90;;;;;;4947082;28;20069;-59
2022/03/27 02:23:30;;;;;;;66.47;34.50;;;3.70;99.90;;;;;;4945590;28;20039;-59
2022/03/27 02:25:57;;;;;;;70.28;37.75;;;3.70;99.90;;;;;;4946710;28;20133;-60
2022/03/27 02:28:25;;;;;;;66.40;35.13;;;3.70;99.90;;;;;;4946272;28;20046;-58
2022/03/27 02:30:53;;;;;;;74.82;37.70;;;3.60;99.90;;;;;;4945051;28;20391;-59
2022/03/27 02:33:20;;;;;;;67.30;34.83;;;3.60;99.90;;;;;;4945896;28;20492;-59
2022/03/27 02:35:47;;;;;;;59.47;30.95;;;3.60;99.90;;;;;;4946037;28;20039;-59
2022/03/27 02:38:14;;;;;;;57.90;32.85;;;3.60;99.90;;;;;;4946213;28;20054;-58
2022/03/27 02:40:42;;;;;;;;;;;3.60;99.90;;;;;;4948141;28;20050;-59
2022/03/27 02:43:09;;;;;;;58.85;30.02;;;3.50;99.90;;;;;;4946152;28;19925;-59
2022/03/27 02:45:38;;;;;;;59.95;31.48;;;3.50;99.90;;;;;;4946706;28;20532;-58
2022/03/27 02:48:05;;;;;;;62.67;33.50;;;3.50;99.90;;;;;;4944646;28;20123;-59
2022/03/27 02:50:33;;;;;;;64.00;34.33;;;3.50;99.90;;;;;;4946735;28;20133;-58
2022/03/27 02:53:00;;;;;;;63.10;35.05;;;3.40;99.90;;;;;;4945569;28;20280;-58
2022/03/27 02:55:27;;;;;;;;;;;3.40;99.90;;;;;;4947525;28;20057;-58
2022/03/27 02:57:54;;;;;;;63.33;33.72;;;3.30;99.90;;;;;;4944502;28;19933;-59
2022/03/27 03:00:22;;;;;;;79.75;38.45;;;3.30;99.90;;;;;;4946483;28;20047;-59
2022/03/27 03:02:49;;;;;;;62.47;34.88;;;3.30;99.90;;;;;;4944231;28;20046;-59
2022/03/27 03:05:17;;;;;;;59.40;34.22;;;3.20;99.90;;;;;;4958660;28;20219;-58
2022/03/27 03:07:44;;;;;;;71.90;37.53;;;3.20;99.90;;;;;;4943386;28;20888;-59
2022/03/27 03:10:12;;;;;;;65.93;34.60;;;3.20;99.90;;;;;;4946155;28;20136;-59
2022/03/27 03:12:39;;;;;;;72.72;33.38;;;3.20;99.90;;;;;;4944951;28;20044;-59
2022/03/27 03:15:07;;;;;;;69.90;35.03;;;3.20;99.90;;;;;;4943843;28;20069;-59
2022/03/27 03:17:34;;;;;;;65.35;35.63;;;3.20;99.90;;;;;;4944194;28;20201;-59
2022/03/27 03:20:02;;;;;;;63.75;33.63;;;3.20;99.90;;;;;;4946159;28;20038;-59
2022/03/27 03:22:29;;;;;;;63.10;32.58;;;3.20;99.90;;;;;;4945913;28;20049;-59
2022/03/27 03:24:56;;;;;;;69.28;34.58;;;3.20;99.90;;;;;;4945698;28;20374;-59
2022/03/27 03:27:23;;;;;;;62.95;32.97;;;3.10;99.90;;;;;;4944429;28;20125;-59
2022/03/27 03:29:50;;;;;;;;;;;3.20;99.90;;;;;;4946227;28;20061;-59
2022/03/27 03:32:17;;;;;;;60.80;32.45;;;3.20;99.90;;;;;;4945373;28;19925;-58
2022/03/27 03:34:44;;;;;;;63.20;33.63;;;3.20;99.90;;;;;;4945248;28;20160;-58
2022/03/27 03:37:10;;;;;;;;;;;3.10;99.90;;;;;;4946148;28;20153;-59
2022/03/27 03:39:37;;;;;;;66.07;34.08;;;3.10;99.90;;;;;;4946310;28;20042;-59
2022/03/27 03:42:04;;;;;;;;;;;3.10;99.90;;;;;;4945900;28;20146;-59
2022/03/27 03:44:31;;;;;;;58.97;30.63;;;3.10;99.90;;;;;;4945930;28;19921;-60
2022/03/27 03:46:58;;;;;;;62.50;33.53;;;3.10;99.90;;;;;;4944824;28;20073;-59
2022/03/27 03:49:25;;;;;;;;;;;3.10;99.90;;;;;;4946402;28;20046;-63
2022/03/27 03:51:52;;;;;;;74.35;36.75;;;3.10;99.90;;;;;;4944108;28;19938;-59
2022/03/27 03:54:18;;;;;;;;;;;3.00;99.90;;;;;;4946526;28;20054;-59
2022/03/27 03:56:45;;;;;;;71.07;34.42;;;3.00;99.90;;;;;;4943086;28;19930;-59
2022/03/27 03:59:12;;;;;;;65.00;33.35;;;3.00;99.90;;;;;;4945528;28;20587;-59
2022/03/27 04:01:57;;;;;;;71.18;34.20;;;3.00;99.90;;;;;;4945581;28;20184;-58
2022/03/27 04:04:25;;;;;;;64.18;35.17;;;3.00;99.90;;;;;;4944184;28;20042;-59
2022/03/27 04:06:52;;;;;;;65.47;33.50;;;3.00;99.90;;;;;;4943532;28;20042;-59
2022/03/27 04:09:20;;;;;;;65.55;31.00;;;2.90;99.90;;;;;;4944024;28;20859;-59
2022/03/27 04:11:48;;;;;;;64.30;33.65;;;3.00;99.90;;;;;;4944079;28;20042;-59
2022/03/27 04:14:14;;;;;;;66.32;33.95;;;2.90;99.90;;;;;;4944475;28;20051;-58
2022/03/27 04:16:41;;;;;;;63.75;34.70;;;3.00;99.90;;;;;;4944213;28;20053;-59
2022/03/27 04:19:08;;;;;;;61.05;31.58;;;3.00;99.90;;;;;;4944679;28;20547;-59
2022/03/27 04:21:35;;;;;;;60.55;31.73;;;3.00;99.90;;;;;;4944600;28;20038;-59
2022/03/27 04:24:02;;;;;;;;;;;2.90;99.90;;;;;;4945557;28;20120;-59
2022/03/27 04:26:32;;;;;;;70.90;33.85;;;2.90;99.90;;;;;;4944334;28;19928;-58
2022/03/27 04:29:00;;;;;;;67.90;34.63;;;2.80;99.90;;;;;;4943454;28;20054;-59
2022/03/27 04:31:28;;;;;;;62.35;34.53;;;2.80;99.90;;;;;;4944922;28;20057;-59
2022/03/27 04:33:56;;;;;;;62.55;33.20;;;2.70;99.90;;;;;;4944016;28;20053;-58
2022/03/27 04:36:23;;;;;;;66.78;34.45;;;2.70;99.90;;;;;;4944059;28;20038;-58
2022/03/27 04:38:49;;;;;;;71.20;35.10;;;2.70;99.90;;;;;;4942725;28;20042;-59
2022/03/27 04:41:16;;;;;;;;;;;2.70;99.90;;;;;;4945606;28;20046;-58
2022/03/27 04:43:47;;;;;;;73.22;35.83;;;2.70;99.90;;;;;;4957838;28;19922;-58
2022/03/27 04:46:17;;;;;;;73.63;35.20;;;2.70;99.90;;;;;;4944231;28;20058;-58
2022/03/27 04:48:45;;;;;;;68.45;35.97;;;2.60;99.90;;;;;;4943840;28;20544;-59
2022/03/27 04:51:12;;;;;;;69.50;34.50;;;2.60;99.90;;;;;;4945676;28;20061;-58
2022/03/27 04:53:40;;;;;;;58.45;30.40;;;2.50;99.90;;;;;;4945066;28;20050;-59
2022/03/27 04:56:07;;;;;;;67.65;32.85;;;2.50;99.90;;;;;;4941821;28;20038;-59
2022/03/27 04:58:35;;;;;;;65.57;34.58;;;2.50;99.90;;;;;;4943868;28;20816;-59
2022/03/27 05:01:03;;;;;;;74.32;39.72;;;2.50;99.90;;;;;;4944244;28;20088;-59
2022/03/27 05:03:31;;;;;;;71.28;33.88;;;2.50;99.90;;;;;;4944979;28;20046;-58
2022/03/27 05:05:58;;;;;;;73.28;37.60;;;2.40;99.90;;;;;;4940644;28;20153;-59
2022/03/27 05:08:25;;;;;;;59.25;32.70;;;2.40;99.90;;;;;;4943910;28;20050;-59
2022/03/27 05:10:52;;;;;;;70.07;35.58;;;2.50;99.90;;;;;;4943784;28;20143;-56
2022/03/27 05:13:19;;;;;;;68.90;35.17;;;2.50;99.90;;;;;;4944430;28;20058;-56
2022/03/27 05:15:47;;;;;;;71.80;34.45;;;2.40;99.90;;;;;;4941866;28;20548;-57
2022/03/27 05:18:15;;;;;;;62.58;33.95;;;2.40;99.90;;;;;;4943339;28;20045;-57
2022/03/27 05:20:42;;;;;;;62.53;32.67;;;2.40;99.90;;;;;;4944469;28;20046;-57
2022/03/27 05:23:09;;;;;;;66.95;35.67;;;2.40;99.90;;;;;;4941867;28;20042;-57
2022/03/27 05:25:45;;;;;;;68.43;35.40;;;2.40;99.90;;;;;;4944366;28;20126;-56
2022/03/27 05:28:14;;;;;;;68.53;33.58;;;2.40;99.90;;;;;;4941650;28;20583;-56
2022/03/27 05:30:43;;;;;;;69.95;36.45;;;2.40;99.90;;;;;;4943515;28;20221;-56
2022/03/27 05:33:10;;;;;;;71.10;35.05;;;2.40;99.90;;;;;;4943805;28;20323;-56
2022/03/27 05:35:37;;;;;;;66.28;34.92;;;2.40;99.90;;;;;;4944761;28;20731;-58
2022/03/27 05:38:05;;;;;;;71.55;35.45;;;2.50;99.90;;;;;;4942674;28;20038;-56
2022/03/27 05:40:32;;;;;;;67.85;35.75;;;2.50;99.90;;;;;;4944438;28;20047;-57
2022/03/27 05:42:59;;;;;;;67.25;33.15;;;2.50;99.90;;;;;;4943400;28;20047;-55
2022/03/27 05:45:27;;;;;;;64.13;33.83;;;2.60;99.90;;;;;;4942520;28;20185;-57
2022/03/27 05:47:55;;;;;;;68.00;35.17;;;2.70;99.90;;;;;;4944533;28;20066;-58
2022/03/27 05:50:22;;;;;;;67.05;33.00;;;2.70;99.90;;;;;;4947896;28;20053;-57
2022/03/27 05:52:51;;;;;;;70.18;34.92;;;2.80;99.90;;;;;;4947538;28;20149;-56
2022/03/27 05:55:18;;;;;;;59.22;31.33;;;2.80;99.90;;;;;;4947414;28;20039;-57
2022/03/27 05:57:45;;;;;;;60.08;31.70;;;2.90;99.90;;;;;;4947018;28;20828;-58
2022/03/27 06:00:16;;;;;;;59.53;31.38;;;2.90;99.90;;;;;;4944744;28;20818;-58
2022/03/27 06:02:43;;;;;;;53.00;28.90;;;3.00;99.90;;;;;;4946734;28;20212;-57
2022/03/27 06:05:11;;;;;;;54.20;31.10;;;3.00;99.90;;;;;;4943968;28;20135;-58
2022/03/27 06:07:45;;;;;;;53.22;28.75;;;3.10;99.90;;;;;;4944098;28;20104;-58
2022/03/27 06:10:14;;;;;;;48.22;27.15;;;3.10;99.90;;;;;;4947387;28;20047;-58
2022/03/27 06:12:43;;;;;;;52.35;27.92;;;3.20;99.90;;;;;;4945941;28;20043;-58
2022/03/27 06:15:10;;;;;;;48.63;26.27;;;3.20;99.90;;;;;;4946481;28;20177;-57
2022/03/27 06:17:42;;;;;;;49.33;29.42;;;3.30;99.90;;;;;;4945301;28;20069;-58
2022/03/27 06:20:11;;;;;;;64.57;33.47;;;3.40;99.90;;;;;;4947271;28;20049;-57
2022/03/27 06:22:39;;;;;;;58.05;30.40;;;3.50;99.90;;;;;;4947361;28;20043;-58
2022/03/27 06:25:11;;;;;;;63.80;32.88;;;3.50;99.90;;;;;;4947000;28;20064;-57
2022/03/27 06:27:38;;;;;;;57.05;31.40;;;3.60;99.90;;;;;;4955228;28;20223;-58
2022/03/27 06:30:11;;;;;;;60.20;31.02;;;3.70;99.90;;;;;;4965399;28;20925;-58
2022/03/27 06:32:38;;;;;;;54.97;31.77;;;3.70;99.90;;;;;;4965281;28;20046;-58
2022/03/27 06:35:06;;;;;;;53.83;31.42;;;3.80;99.90;;;;;;4964757;28;20772;-58
2022/03/27 06:37:34;;;;;;;56.10;31.60;;;3.90;99.90;;;;;;4963130;28;20136;-58
2022/03/27 06:40:02;;;;;;;49.95;28.88;;;4.10;99.90;;;;;;4970207;28;20511;-58
2022/03/27 06:42:30;;;;;;;50.83;29.45;;;4.20;99.90;;;;;;4963194;28;20113;-57
2022/03/27 06:44:57;;;;;;;56.47;31.30;;;4.40;99.90;;;;;;4964473;28;20038;-57
2022/03/27 06:47:26;;;;;;;58.60;31.23;;;4.70;99.90;;;;;;4961598;28;20116;-57
2022/03/27 06:49:56;;;;;;;50.15;29.73;;;5.00;99.90;;;;;;4964156;28;20041;-58
2022/03/27 06:52:25;;;;;;;57.55;30.98;;;5.40;99.90;;;;;;4964640;28;20357;-57
2022/03/27 06:54:53;;;;;;;54.90;29.63;;;5.70;99.90;;;;;;4963530;28;20164;-57
2022/03/27 06:57:21;;;;;;;56.17;31.85;;;6.10;99.90;;;;;;4961252;28;20042;-58
2022/03/27 07:05:22;;;;;;;55.00;31.23;;;6.80;99.90;;;;;;4961839;28;20046;-58
2022/03/27 07:07:54;;;;;;;61.75;31.83;;;7.00;99.90;;;;;;4961534;28;20742;-58
2022/03/27 07:10:20;;;;;;;;;;;7.00;99.90;;;;;;4975946;28;20133;-58
2022/03/27 07:12:48;;;;;;;62.88;32.67;;;7.00;99.90;;;;;;4963648;28;19933;-58
2022/03/27 07:15:15;;;;;;;61.38;33.35;;;7.00;99.90;;;;;;4960434;28;20045;-58
2022/03/27 07:17:48;;;;;;;60.22;34.47;;;7.10;99.90;;;;;;4957867;28;20559;-56
2022/03/27 07:20:23;;;;;;;64.00;32.15;;;7.10;99.90;;;;;;4960007;28;20037;-55
2022/03/27 07:22:52;;;;;;;56.95;32.22;;;7.10;99.90;;;;;;4960539;28;20113;-55
2022/03/27 07:25:21;;;;;;;56.30;31.77;;;7.20;99.90;;;;;;4960762;28;20046;-56
2022/03/27 07:27:48;;;;;;;58.10;33.38;;;7.30;99.90;;;;;;4961845;28;20050;-55
2022/03/27 07:30:16;;;;;;;59.97;33.90;;;7.50;99.90;;;;;;4961151;28;20041;-55
2022/03/27 07:32:44;;;;;;;62.78;32.90;;;7.60;99.90;;;;;;4960806;28;20128;-56
2022/03/27 07:35:14;;;;;;;66.70;33.10;;;8.10;99.90;;;;;;4962678;28;20045;-55
2022/03/27 07:37:43;;;;;;;65.25;33.63;;;8.70;99.90;;;;;;4977671;28;20626;-57
2022/03/27 07:40:12;;;;;;;64.18;32.50;;;9.30;99.90;;;;;;4963297;28;20361;-58
2022/03/27 07:42:41;;;;;;;58.83;33.25;;;9.90;99.90;;;;;;4957388;28;20034;-57
2022/03/27 07:45:11;;;;;;;58.90;33.30;;;10.40;99.90;;;;;;4957084;28;20042;-58
2022/03/27 07:47:38;;;;;;;61.15;33.03;;;11.00;97.00;;;;;;4960061;28;20042;-57
2022/03/27 07:50:07;;;;;;;62.15;32.95;;;11.30;94.90;;;;;;4963373;28;20356;-58
2022/03/27 07:52:35;;;;;;;64.00;33.10;;;11.80;92.20;;;;;;4960392;28;20112;-59
2022/03/27 07:55:03;;;;;;;62.78;32.38;;;12.20;90.90;;;;;;4962290;28;20399;-53
2022/03/27 07:57:30;;;;;;;65.50;34.20;;;12.60;89.70;;;;;;4961337;28;20038;-58
2022/03/27 07:59:57;;;;;;;57.90;31.30;;;13.00;86.40;;;;;;4961804;28;20042;-58
2022/03/27 08:02:24;;;;;;;56.33;31.85;;;13.40;83.90;;;;;;4961134;28;20065;-57
2022/03/27 08:04:52;;;;;;;56.83;30.92;;;13.80;80.50;;;;;;4962231;28;20113;-58
2022/03/27 08:07:19;;;;;;;55.08;31.75;;;14.20;76.20;;;;;;4953877;28;20340;-58
2022/03/27 08:09:46;;;;;;;60.58;32.25;;;14.60;74.20;;;;;;4960048;28;20962;-60
2022/03/27 08:12:13;;;;;;;;;;;14.90;69.00;;;;;;4959067;28;20178;-62
2022/03/27 08:14:43;;;;;;;66.05;31.38;;;15.10;68.80;;;;;;4954347;28;20198;-61
2022/03/27 08:17:10;;;;;;;51.90;31.13;;;15.30;67.50;;;;;;4954486;28;20144;-61
2022/03/27 08:19:37;;;;;;;58.70;32.60;;;15.60;64.70;;;;;;4960795;28;20053;-58
2022/03/27 08:22:04;;;;;;;;;;;15.90;63.30;;;;;;4963096;28;20046;-57
2022/03/27 08:24:33;;;;;;;58.90;32.30;;;16.10;62.70;;;;;;4955769;28;19932;-58
2022/03/27 08:27:02;;;;;;;49.13;29.95;;;16.40;61.90;;;;;;4959075;28;20042;-63
2022/03/27 08:29:31;;;;;;;55.25;28.70;;;16.70;61.20;;;;;;4961476;28;20038;-60
2022/03/27 08:32:00;;;;;;;51.30;30.90;;;17.00;60.30;;;;;;4960999;28;20045;-63
2022/03/27 08:34:30;;;;;;;53.10;30.73;;;17.30;59.90;;;;;;4959226;28;20042;-59
2022/03/27 08:36:58;;;;;;;55.97;31.92;;;17.60;58.00;;;;;;4958489;28;20379;-58
2022/03/27 08:39:25;;;;;;;58.17;31.88;;;17.80;56.90;;;;;;4959621;28;20034;-54
2022/03/27 08:41:54;;;;;;;49.97;30.08;;;17.80;53.80;;;;;;4955352;28;20523;-55
2022/03/27 08:44:23;;;;;;;56.05;33.03;;;17.90;54.50;;;;;;4959997;28;20046;-55
2022/03/27 08:46:52;;;;;;;69.85;32.13;;;17.90;52.50;;;;;;4955677;28;20049;-58
2022/03/27 08:49:46;;;;;;;55.22;33.75;;;17.80;52.60;;;;;;4975118;28;20985;-56
2022/03/27 08:52:23;;;;;;;57.83;32.92;;;17.60;51.20;;;;;;4960010;28;20044;-56
2022/03/27 08:55:00;;;;;;;55.15;31.63;;;17.30;53.80;;;;;;4961438;28;20720;-55
2022/03/27 08:57:53;;;;;;;51.78;32.42;;;17.40;54.00;;;;;;4961173;28;20077;-56
2022/03/27 09:00:39;;;;;;;49.50;30.55;;;17.60;54.10;;;;;;4962390;28;20056;-56
2022/03/27 09:03:07;;;;;;;49.80;31.45;;;17.80;53.80;;;;;;4962211;28;20030;-56
2022/03/27 09:05:39;;;;;;;47.22;30.40;;;17.90;53.30;;;;;;4961423;28;20608;-57
2022/03/27 09:08:09;;;;;;;51.95;31.40;;;17.90;54.00;;;;;;4933456;28;20139;-56
2022/03/27 09:10:38;;;;;;;50.90;30.77;;;17.90;53.60;;;;;;4959596;28;20052;-56
2022/03/27 09:13:10;;;;;;;51.28;31.70;;;17.90;53.90;;;;;;4961508;28;20128;-56
2022/03/27 09:15:37;;;;;;;56.78;33.05;;;18.10;51.90;;;;;;4966452;28;20042;-58
2022/03/27 09:18:11;;;;;;;49.55;31.85;;;18.30;51.20;;;;;;4956878;28;20465;-57
2022/03/27 09:20:43;;;;;;;49.13;30.02;;;18.50;51.50;;;;;;4964506;28;20038;-58
2022/03/27 09:23:27;;;;;;;47.25;29.23;;;18.60;50.80;;;;;;4962263;28;20583;-56
2022/03/27 09:25:56;;;;;;;45.35;29.45;;;19.00;52.90;;;;;;4965936;28;20038;-62
2022/03/27 09:28:26;;;;;;;51.22;30.80;;;19.00;48.80;;;;;;4965723;28;20131;-62
2022/03/27 09:30:53;;;;;;;54.13;33.20;;;19.00;49.60;;;;;;4967327;28;20033;-63
2022/03/27 09:33:38;;;;;;;45.55;31.13;;;19.00;48.30;;;;;;4965017;28;20887;-63
2022/03/27 09:36:09;;;;;;;59.35;32.78;;;18.70;49.10;;;;;;4962484;28;20046;-53
2022/03/27 09:38:37;;;;;;;44.55;28.40;;;18.70;55.40;;;;;;4955999;28;20223;-52
2022/03/27 09:41:05;;;;;;;53.85;29.95;;;18.80;54.80;;;;;;4965101;28;20046;-52
2022/03/27 09:43:32;;;;;;;52.33;29.05;;;19.10;53.50;;;;;;4956562;28;20038;-52
2022/03/27 09:46:02;;;;;;;50.72;28.67;;;19.40;52.10;;;;;;4963769;28;20152;-52
2022/03/27 09:48:30;;;;;;;45.38;27.77;;;19.80;51.00;;;;;;4972988;28;20338;-52
2022/03/27 09:51:01;;;;;;;49.97;30.75;;;20.10;49.20;;;;;;4963714;28;20136;-53
2022/03/27 09:53:31;;;;;;;47.42;31.20;;;20.40;48.80;;;;;;4963950;28;20536;-53
2022/03/27 09:55:58;;;;;;;44.08;29.13;;;20.60;49.60;;;;;;4962033;28;20212;-52
2022/03/27 09:58:42;;;;;;;57.28;31.00;;;20.90;48.60;;;;;;4962484;28;20041;-52
2022/03/27 10:01:15;;;;;;;43.92;28.17;;;21.10;46.00;;;;;;4962385;28;20594;-52
2022/03/27 10:03:59;;;;;;;41.25;28.17;;;21.30;47.30;;;;;;4964239;28;20034;-52
2022/03/27 10:06:37;;;;;;;49.25;31.55;;;21.60;46.90;;;;;;4962270;28;20400;-52
2022/03/27 10:09:06;;;;;;;42.72;27.05;;;21.80;45.40;;;;;;4958757;28;20042;-51
2022/03/27 10:11:34;;;;;;;46.72;29.30;;;22.00;45.40;;;;;;4957625;28;20045;-52
2022/03/27 10:14:03;;;;;;;43.00;27.33;;;22.20;44.20;;;;;;4962734;28;20034;-52
2022/03/27 10:16:42;;;;;;;44.03;28.90;;;22.30;43.80;;;;;;4960995;28;20048;-52
2022/03/27 10:19:18;;;;;;;49.63;27.70;;;22.50;42.10;;;;;;4963367;28;20038;-52
2022/03/27 10:21:48;;;;;;;48.70;27.30;;;22.50;42.00;;;;;;4962065;28;20069;-52
2022/03/27 10:24:16;;;;;;;43.40;26.67;;;22.60;40.80;;;;;;4961496;28;20207;-52
2022/03/27 10:26:44;;;;;;;40.42;26.13;;;22.50;37.20;;;;;;4963324;28;20556;-52
2022/03/27 10:29:14;;;;;;;37.50;23.33;;;22.40;39.80;;;;;;4961128;28;20045;-52
2022/03/27 10:31:41;;;;;;;40.85;24.90;;;22.40;40.00;;;;;;4962119;28;20648;-51
2022/03/27 10:34:10;;;;;;;33.97;24.17;;;22.60;39.80;;;;;;4963211;28;20049;-52
2022/03/27 10:36:58;;;;;;;42.30;26.13;;;22.70;39.50;;;;;;4960549;28;20874;-52
2022/03/27 10:39:35;;;;;;;;;;;22.70;41.10;;;;;;4962407;28;20559;-52
2022/03/27 10:42:11;;;;;;;35.63;24.20;;;22.80;40.50;;;;;;4956369;28;20606;-52
2022/03/27 10:44:55;;;;;;;36.28;25.95;;;22.70;38.60;;;;;;4961705;28;20061;-52
2022/03/27 10:47:25;;;;;;;35.33;23.75;;;22.60;38.90;;;;;;4955966;28;20555;-52
2022/03/27 10:50:01;;;;;;;41.70;27.73;;;22.40;40.80;;;;;;4962696;28;20077;-52
2022/03/27 10:52:30;;;;;;;36.83;26.65;;;22.60;42.90;;;;;;4960453;28;20560;-52
2022/03/27 10:55:02;;;;;;;36.97;27.58;;;22.60;44.10;;;;;;4964064;28;20697;-53
2022/03/27 10:57:34;;;;;;;41.22;27.25;;;22.70;44.30;;;;;;4960823;28;20206;-52
2022/03/27 11:00:04;;;;;;;41.75;27.55;;;22.80;43.50;;;;;;4962206;28;20045;-55
2022/03/27 11:02:45;;;;;;;40.97;28.80;;;23.00;41.90;;;;;;4960966;28;20048;-56
2022/03/27 11:05:36;;;;;;;38.17;26.15;;;23.00;41.70;;;;;;4963059;28;20065;-57
2022/03/27 11:08:18;;;;;;;41.33;26.92;;;22.90;42.90;;;;;;4950343;28;20716;-57
2022/03/27 11:10:55;;;;;;;35.33;25.40;;;23.00;42.20;;;;;;4959292;28;20148;-56
2022/03/27 11:13:25;;;;;;;38.35;26.20;;;22.90;41.70;;;;;;4961635;28;20891;-56
2022/03/27 11:16:02;;;;;;;38.85;25.88;;;22.90;43.10;;;;;;4953578;28;20057;-60
2022/03/27 11:18:35;;;;;;;;;;;22.90;42.90;;;;;;4962533;28;20057;-57
2022/03/27 11:21:03;;;;;;;35.67;24.70;;;23.00;40.90;;;;;;4961996;28;19921;-58
2022/03/27 11:23:33;;;;;;;41.03;26.55;;;23.10;43.40;;;;;;4962663;28;20034;-58
2022/03/27 11:26:01;;;;;;;33.35;23.60;;;23.20;41.10;;;;;;4954700;28;20410;-57
2022/03/27 11:28:50;;;;;;;35.17;24.27;;;23.30;40.90;;;;;;4956342;28;20559;-58
2022/03/27 11:31:29;;;;;;;33.72;24.10;;;23.40;40.70;;;;;;4960533;28;20123;-59
2022/03/27 11:34:12;;;;;;;34.67;23.73;;;23.50;40.40;;;;;;4961054;28;20227;-58
2022/03/27 11:36:41;;;;;;;32.50;22.45;;;23.60;41.00;;;;;;4961808;28;20042;-60
2022/03/27 11:39:12;;;;;;;32.50;23.58;;;23.70;40.00;;;;;;4960962;28;20049;-58
2022/03/27 11:41:48;;;;;;;41.20;26.95;;;23.80;40.20;;;;;;4959201;28;20054;-57
2022/03/27 11:47:21;;;;;;;32.47;23.92;;;23.80;36.50;;;;;;4957900;28;20574;-59
2022/03/27 11:49:49;;;;;;;42.53;25.55;;;23.60;38.60;;;;;;4962011;28;20048;-58
2022/03/27 11:52:22;;;;;;;35.75;25.38;;;23.50;37.20;;;;;;4961982;28;20807;-58
2022/03/27 11:55:12;;;;;;;34.78;24.95;;;23.50;38.80;;;;;;4961908;28;20049;-59
2022/03/27 11:57:55;;;;;;;33.83;24.20;;;23.40;37.60;;;;;;4961652;28;20057;-59
2022/03/27 12:00:44;;;;;;;38.33;24.33;;;23.40;38.00;;;;;;4967344;28;20061;-58
2022/03/27 12:03:19;;;;;;;33.13;23.40;;;23.40;36.60;;;;;;4964954;28;20045;-59
2022/03/27 12:05:47;;;;;;;33.67;22.80;;;23.40;35.50;;;;;;4962975;28;20042;-58
2022/03/27 12:08:17;;;;;;;34.63;22.00;;;23.40;34.80;;;;;;4960721;28;20392;-58
2022/03/27 12:10:54;;;;;;;30.77;21.15;;;23.40;36.90;;;;;;4957199;28;20050;-59
2022/03/27 12:13:22;;;;;;;37.45;22.90;;;23.40;36.40;;;;;;4960557;28;20145;-59
2022/03/27 12:15:54;;;;;;;39.78;23.35;;;23.30;34.60;;;;;;4951702;28;20042;-59
2022/03/27 12:18:31;;;;;;;32.30;22.60;;;23.30;35.20;;;;;;4960237;28;20117;-59
2022/03/27 12:21:09;;;;;;;34.78;22.48;;;23.20;36.00;;;;;;4956359;28;20299;-59
2022/03/27 12:23:39;;;;;;;31.40;22.40;;;23.10;34.70;;;;;;4978429;28;20234;-59
2022/03/27 12:32:13;;;;;;;34.67;23.23;;;23.00;37.30;;;;;;4964022;28;20042;-58
2022/03/27 12:34:47;;;;;;;32.58;22.08;;;22.90;34.50;;;;;;4960742;28;20052;-59
2022/03/27 12:37:17;;;;;;;29.45;20.65;;;22.60;33.40;;;;;;4955930;28;20141;-59
2022/03/27 12:39:47;;;;;;;32.25;20.20;;;22.20;34.00;;;;;;4943266;28;20524;-59
2022/03/27 12:42:39;;;;;;;32.30;22.52;;;22.00;36.20;;;;;;4953390;28;20198;-59
2022/03/27 12:45:14;;;;;;;26.23;18.63;;;21.80;34.70;;;;;;4962925;28;20153;-59
2022/03/27 12:47:43;;;;;;;26.33;18.40;;;21.80;34.10;;;;;;4959198;28;20555;-58
2022/03/27 12:50:29;;;;;;;34.22;17.73;;;22.00;29.20;;;;;;4960499;28;20058;-60
2022/03/27 12:53:04;;;;;;;25.38;17.67;;;22.10;28.40;;;;;;4960748;28;20556;-59
2022/03/27 12:55:41;;;;;;;29.63;19.70;;;22.20;29.70;;;;;;4961375;28;20156;-59
2022/03/27 12:58:09;;;;;;;;;;;22.30;29.70;;;;;;4963621;28;20042;-58
2022/03/27 13:00:40;;;;;;;31.83;18.40;;;22.50;29.60;;;;;;4965683;28;20217;-59
2022/03/27 13:03:15;;;;;;;28.85;18.20;;;22.80;32.60;;;;;;4961206;28;20574;-59
2022/03/27 13:05:56;;;;;;;22.45;15.77;;;23.10;32.00;;;;;;4959319;28;20034;-58
2022/03/27 13:08:40;;;;;;;25.45;16.90;;;23.30;31.50;;;;;;4954321;28;20049;-60
2022/03/27 13:11:08;;;;;;;23.85;16.90;;;23.50;31.30;;;;;;4953002;28;20828;-60
2022/03/27 13:13:44;;;;;;;25.58;17.90;;;23.70;31.40;;;;;;4960709;28;20065;-60